sensor_id;sensor_type;location;lat;lon;timestamp;temperature;humidity
1055;DHT22;516;51.482;7.120;2022-09-09T00:00:32;14.70;99.90
1055;DHT22;516;51.482;7.120;2022-09-09T00:06:32;14.70;99.90
1055;DHT22;516;51.482;7.120;2022-09-09T00:12:34;14.80;99.90
1055;DHT22;516;51.482;7.120;2022-09-09T00:32:04;14.80;99.90
1055;DHT22;516;51.482;7.120;2022-09-09T00:37:56;14.80;99.90
1055;DHT22;516;51.482;7.120;2022-09-09T01:18:21;14.60;99.90
1055;DHT22;516;51.482;7.120;2022-09-09T01:30:45;14.60;99.90
1055;DHT22;516;51.482;7.120;2022-09-09T01:39:54;14.50;99.90
1055;DHT22;516;51.482;7.120;2022-09-09T01:45:24;14.70;99.90
1055;DHT22;516;51.482;7.120;2022-09-09T01:51:11;14.70;99.90
1055;DHT22;516;51.482;7.120;2022-09-09T02:03:35;14.90;99.90
1055;DHT22;516;51.482;7.120;2022-09-09T02:09:24;14.80;99.90
1055;DHT22;516;51.482;7.120;2022-09-09T02:21:48;14.90;99.90
1055;DHT22;516;51.482;7.120;2022-09-09T02:27:36;14.90;99.90
1055;DHT22;516;51.482;7.120;2022-09-09T02:33:27;14.80;99.90
1055;DHT22;516;51.482;7.120;2022-09-09T02:36:15;14.90;99.90
1055;DHT22;516;51.482;7.120;2022-09-09T02:38:46;14.90;99.90
1055;DHT22;516;51.482;7.120;2022-09-09T02:44:37;15.00;99.90
1055;DHT22;516;51.482;7.120;2022-09-09T02:50:37;15.20;99.90
1055;DHT22;516;51.482;7.120;2022-09-09T02:56:32;15.40;99.90
1055;DHT22;516;51.482;7.120;2022-09-09T03:02:24;15.40;99.90
1055;DHT22;516;51.482;7.120;2022-09-09T03:11:33;15.40;99.90
1055;DHT22;516;51.482;7.120;2022-09-09T03:17:20;15.40;99.90
1055;DHT22;516;51.482;7.120;2022-09-09T03:23:07;15.40;99.90
1055;DHT22;516;51.482;7.120;2022-09-09T03:28:55;15.40;99.90
1055;DHT22;516;51.482;7.120;2022-09-09T03:34:43;15.40;99.90
1055;DHT22;516;51.482;7.120;2022-09-09T03:44:03;15.20;99.90
1055;DHT22;516;51.482;7.120;2022-09-09T03:49:50;15.20;99.90
1055;DHT22;516;51.482;7.120;2022-09-09T03:55:38;15.20;99.90
1055;DHT22;516;51.482;7.120;2022-09-09T04:01:26;15.20;99.90
1055;DHT22;516;51.482;7.120;2022-09-09T04:07:14;15.30;99.90
1055;DHT22;516;51.482;7.120;2022-09-09T04:13:03;15.20;99.90
1055;DHT22;516;51.482;7.120;2022-09-09T04:18:51;15.30;99.90
1055;DHT22;516;51.482;7.120;2022-09-09T04:24:40;15.30;99.90
1055;DHT22;516;51.482;7.120;2022-09-09T04:30:28;15.30;99.90
1055;DHT22;516;51.482;7.120;2022-09-09T04:36:16;15.30;99.90
1055;DHT22;516;51.482;7.120;2022-09-09T04:42:12;15.40;99.90
1055;DHT22;516;51.482;7.120;2022-09-09T04:48:00;15.20;99.90
1055;DHT22;516;51.482;7.120;2022-09-09T04:53:47;15.20;99.90
1055;DHT22;516;51.482;7.120;2022-09-09T04:59:35;15.30;99.90
1055;DHT22;516;51.482;7.120;2022-09-09T05:05:22;15.40;99.90
1055;DHT22;516;51.482;7.120;2022-09-09T05:11:19;15.40;99.90
1055;DHT22;516;51.482;7.120;2022-09-09T05:17:10;15.50;99.90
1055;DHT22;516;51.482;7.120;2022-09-09T05:22:58;15.60;99.90
1055;DHT22;516;51.482;7.120;2022-09-09T05:28:46;15.60;99.90
1055;DHT22;516;51.482;7.120;2022-09-09T05:34:34;15.60;99.90
1055;DHT22;516;51.482;7.120;2022-09-09T05:40:22;15.70;99.90
1055;DHT22;516;51.482;7.120;2022-09-09T05:46:15;15.80;99.90
1055;DHT22;516;51.482;7.120;2022-09-09T05:52:03;15.90;99.90
1055;DHT22;516;51.482;7.120;2022-09-09T05:57:51;16.00;99.90
1055;DHT22;516;51.482;7.120;2022-09-09T06:03:40;16.00;99.90
1055;DHT22;516;51.482;7.120;2022-09-09T06:09:31;16.10;99.90
1055;DHT22;516;51.482;7.120;2022-09-09T06:15:19;16.20;99.90
1055;DHT22;516;51.482;7.120;2022-09-09T06:21:11;16.30;99.90
1055;DHT22;516;51.482;7.120;2022-09-09T06:27:01;16.40;99.90
1055;DHT22;516;51.482;7.120;2022-09-09T06:32:49;16.60;99.90
1055;DHT22;516;51.482;7.120;2022-09-09T06:38:37;16.70;99.90
1055;DHT22;516;51.482;7.120;2022-09-09T06:44:25;16.90;99.90
1055;DHT22;516;51.482;7.120;2022-09-09T06:53:40;17.10;99.90
1055;DHT22;516;51.482;7.120;2022-09-09T06:59:28;17.10;99.90
1055;DHT22;516;51.482;7.120;2022-09-09T07:05:18;17.40;99.90
1055;DHT22;516;51.482;7.120;2022-09-09T07:11:07;17.70;99.90
1055;DHT22;516;51.482;7.120;2022-09-09T07:16:55;18.70;99.90
1055;DHT22;516;51.482;7.120;2022-09-09T07:22:43;19.50;99.90
1055;DHT22;516;51.482;7.120;2022-09-09T07:28:31;18.60;99.90
1055;DHT22;516;51.482;7.120;2022-09-09T07:34:19;18.30;99.90
1055;DHT22;516;51.482;7.120;2022-09-09T07:40:07;18.40;99.90
1055;DHT22;516;51.482;7.120;2022-09-09T07:45:46;19.50;99.90
1055;DHT22;516;51.482;7.120;2022-09-09T07:51:36;20.50;99.90
1055;DHT22;516;51.482;7.120;2022-09-09T07:57:25;20.20;99.90
1055;DHT22;516;51.482;7.120;2022-09-09T08:03:13;21.10;99.90
1055;DHT22;516;51.482;7.120;2022-09-09T08:09:00;20.20;99.90
1055;DHT22;516;51.482;7.120;2022-09-09T08:14:48;21.90;99.90
1055;DHT22;516;51.482;7.120;2022-09-09T08:20:37;21.50;99.90
1055;DHT22;516;51.482;7.120;2022-09-09T08:26:30;20.70;99.90
1055;DHT22;516;51.482;7.120;2022-09-09T08:32:18;20.00;99.90
1055;DHT22;516;51.482;7.120;2022-09-09T08:38:06;20.20;99.90
1055;DHT22;516;51.482;7.120;2022-09-09T08:53:44;20.00;99.90
1055;DHT22;516;51.482;7.120;2022-09-09T08:59:33;20.20;99.90
1055;DHT22;516;51.482;7.120;2022-09-09T09:22:26;22.90;63.50
1055;DHT22;516;51.482;7.120;2022-09-09T09:28:25;21.20;66.00
1055;DHT22;516;51.482;7.120;2022-09-09T09:34:32;23.00;50.80
1055;DHT22;516;51.482;7.120;2022-09-09T09:40:21;22.80;50.00
1055;DHT22;516;51.482;7.120;2022-09-09T09:43:21;22.20;56.00
1055;DHT22;516;51.482;7.120;2022-09-09T09:45:49;22.30;52.40
1055;DHT22;516;51.482;7.120;2022-09-09T09:51:36;22.00;57.30
1055;DHT22;516;51.482;7.120;2022-09-09T09:57:30;22.30;44.50
1055;DHT22;516;51.482;7.120;2022-09-09T10:03:25;21.30;49.70
1055;DHT22;516;51.482;7.120;2022-09-09T10:09:32;21.00;56.30
1055;DHT22;516;51.482;7.120;2022-09-09T10:59:47;21.80;33.30
1055;DHT22;516;51.482;7.120;2022-09-09T11:05:42;21.80;32.20
1055;DHT22;516;51.482;7.120;2022-09-09T11:11:44;20.70;38.30
1055;DHT22;516;51.482;7.120;2022-09-09T11:38:19;22.20;32.40
1055;DHT22;516;51.482;7.120;2022-09-09T11:47:52;21.20;37.10
1055;DHT22;516;51.482;7.120;2022-09-09T11:53:54;21.70;41.10
1055;DHT22;516;51.482;7.120;2022-09-09T12:18:01;19.60;99.90
1055;DHT22;516;51.482;7.120;2022-09-09T12:23:53;20.30;92.30
1055;DHT22;516;51.482;7.120;2022-09-09T12:29:57;20.60;90.80
1055;DHT22;516;51.482;7.120;2022-09-09T12:35:54;20.90;82.00
1055;DHT22;516;51.482;7.120;2022-09-09T12:48:18;20.50;79.70
1055;DHT22;516;51.482;7.120;2022-09-09T12:50:54;20.20;79.60
1055;DHT22;516;51.482;7.120;2022-09-09T12:56:46;19.90;90.70
1055;DHT22;516;51.482;7.120;2022-09-09T13:02:35;21.90;67.40
1055;DHT22;516;51.482;7.120;2022-09-09T13:08:23;22.30;57.50
1055;DHT22;516;51.482;7.120;2022-09-09T13:14:19;22.00;51.70
1055;DHT22;516;51.482;7.120;2022-09-09T13:26:41;20.20;86.40
1055;DHT22;516;51.482;7.120;2022-09-09T13:32:30;19.80;99.90
1055;DHT22;516;51.482;7.120;2022-09-09T13:38:18;19.30;99.90
1055;DHT22;516;51.482;7.120;2022-09-09T13:44:06;18.50;99.90
1055;DHT22;516;51.482;7.120;2022-09-09T13:53:20;18.20;99.90
1055;DHT22;516;51.482;7.120;2022-09-09T13:59:13;16.80;99.90
1055;DHT22;516;51.482;7.120;2022-09-09T14:05:01;16.80;99.90
1055;DHT22;516;51.482;7.120;2022-09-09T14:10:49;17.30;99.90
1055;DHT22;516;51.482;7.120;2022-09-09T14:16:37;18.10;99.90
1055;DHT22;516;51.482;7.120;2022-09-09T14:22:25;18.30;99.90
1055;DHT22;516;51.482;7.120;2022-09-09T14:28:13;18.00;99.90
1055;DHT22;516;51.482;7.120;2022-09-09T14:34:01;18.00;99.90
1055;DHT22;516;51.482;7.120;2022-09-09T14:39:49;18.00;99.90
1055;DHT22;516;51.482;7.120;2022-09-09T14:45:37;17.80;99.90
1055;DHT22;516;51.482;7.120;2022-09-09T14:51:35;18.50;99.90
1055;DHT22;516;51.482;7.120;2022-09-09T14:57:23;20.80;99.90
1055;DHT22;516;51.482;7.120;2022-09-09T15:03:11;19.00;99.90
1055;DHT22;516;51.482;7.120;2022-09-09T15:08:59;18.50;99.90
1055;DHT22;516;51.482;7.120;2022-09-09T15:14:47;17.70;99.90
1055;DHT22;516;51.482;7.120;2022-09-09T15:20:34;16.70;99.90
1055;DHT22;516;51.482;7.120;2022-09-09T15:26:24;16.30;99.90
1055;DHT22;516;51.482;7.120;2022-09-09T15:32:12;16.20;99.90
1055;DHT22;516;51.482;7.120;2022-09-09T15:38:02;16.00;99.90
1055;DHT22;516;51.482;7.120;2022-09-09T15:43:53;16.00;99.90
1055;DHT22;516;51.482;7.120;2022-09-09T15:53:24;15.90;99.90
1055;DHT22;516;51.482;7.120;2022-09-09T15:59:11;15.90;99.90
1055;DHT22;516;51.482;7.120;2022-09-09T16:04:59;15.90;99.90
1055;DHT22;516;51.482;7.120;2022-09-09T16:10:48;16.00;99.90
1055;DHT22;516;51.482;7.120;2022-09-09T16:16:36;16.00;99.90
1055;DHT22;516;51.482;7.120;2022-09-09T16:22:24;16.10;99.90
1055;DHT22;516;51.482;7.120;2022-09-09T16:28:12;16.10;99.90
1055;DHT22;516;51.482;7.120;2022-09-09T16:34:00;16.20;99.90
1055;DHT22;516;51.482;7.120;2022-09-09T16:39:47;16.10;99.90
1055;DHT22;516;51.482;7.120;2022-09-09T16:45:44;16.10;99.90
1055;DHT22;516;51.482;7.120;2022-09-09T16:54:56;16.10;99.90
1055;DHT22;516;51.482;7.120;2022-09-09T17:00:44;16.10;99.90
1055;DHT22;516;51.482;7.120;2022-09-09T17:06:34;16.10;99.90
1055;DHT22;516;51.482;7.120;2022-09-09T17:12:22;16.30;99.90
1055;DHT22;516;51.482;7.120;2022-09-09T17:18:11;16.20;99.90
1055;DHT22;516;51.482;7.120;2022-09-09T17:23:59;16.20;99.90
1055;DHT22;516;51.482;7.120;2022-09-09T17:29:47;16.20;99.90
1055;DHT22;516;51.482;7.120;2022-09-09T17:35:35;16.20;99.90
1055;DHT22;516;51.482;7.120;2022-09-09T17:41:25;16.10;99.90
1055;DHT22;516;51.482;7.120;2022-09-09T17:47:14;16.00;99.90
1055;DHT22;516;51.482;7.120;2022-09-09T17:52:48;16.10;99.90
1055;DHT22;516;51.482;7.120;2022-09-09T17:58:37;16.10;99.90
1055;DHT22;516;51.482;7.120;2022-09-09T18:04:25;16.20;99.90
1055;DHT22;516;51.482;7.120;2022-09-09T18:10:12;16.20;99.90
1055;DHT22;516;51.482;7.120;2022-09-09T18:16:00;16.20;99.90
1055;DHT22;516;51.482;7.120;2022-09-09T18:21:49;16.20;99.90
1055;DHT22;516;51.482;7.120;2022-09-09T18:27:39;16.30;99.90
1055;DHT22;516;51.482;7.120;2022-09-09T18:33:27;16.30;99.90
1055;DHT22;516;51.482;7.120;2022-09-09T18:39:17;16.30;99.90
1055;DHT22;516;51.482;7.120;2022-09-09T18:44:46;16.30;99.90
1055;DHT22;516;51.482;7.120;2022-09-09T18:57:18;16.30;99.90
1055;DHT22;516;51.482;7.120;2022-09-09T19:03:05;16.20;99.90
1055;DHT22;516;51.482;7.120;2022-09-09T19:08:53;16.20;99.90
1055;DHT22;516;51.482;7.120;2022-09-09T19:14:41;16.10;99.90
1055;DHT22;516;51.482;7.120;2022-09-09T19:20:30;16.10;99.90
1055;DHT22;516;51.482;7.120;2022-09-09T19:26:18;16.10;99.90
1055;DHT22;516;51.482;7.120;2022-09-09T19:32:06;16.00;99.90
1055;DHT22;516;51.482;7.120;2022-09-09T19:37:53;16.00;99.90
1055;DHT22;516;51.482;7.120;2022-09-09T19:43:41;16.00;99.90
1055;DHT22;516;51.482;7.120;2022-09-09T19:49:29;15.90;99.90
1055;DHT22;516;51.482;7.120;2022-09-09T19:55:17;15.90;99.90
1055;DHT22;516;51.482;7.120;2022-09-09T20:01:16;15.90;99.90
1055;DHT22;516;51.482;7.120;2022-09-09T20:07:22;16.00;99.90
1055;DHT22;516;51.482;7.120;2022-09-09T20:13:10;15.80;99.90
1055;DHT22;516;51.482;7.120;2022-09-09T20:19:00;15.80;99.90
1055;DHT22;516;51.482;7.120;2022-09-09T20:24:48;15.80;99.90
1055;DHT22;516;51.482;7.120;2022-09-09T20:30:36;15.80;99.90
1055;DHT22;516;51.482;7.120;2022-09-09T20:36:28;15.80;99.90
1055;DHT22;516;51.482;7.120;2022-09-09T20:42:16;15.90;99.90
1055;DHT22;516;51.482;7.120;2022-09-09T20:48:06;15.90;99.90
1055;DHT22;516;51.482;7.120;2022-09-09T20:57:16;15.80;99.90
1055;DHT22;516;51.482;7.120;2022-09-09T21:03:08;15.90;99.90
1055;DHT22;516;51.482;7.120;2022-09-09T21:08:56;15.90;99.90
1055;DHT22;516;51.482;7.120;2022-09-09T21:14:44;16.00;99.90
1055;DHT22;516;51.482;7.120;2022-09-09T21:20:32;16.00;99.90
1055;DHT22;516;51.482;7.120;2022-09-09T21:26:19;16.10;99.90
1055;DHT22;516;51.482;7.120;2022-09-09T21:32:08;16.00;99.90
1055;DHT22;516;51.482;7.120;2022-09-09T21:37:59;16.00;99.90
1055;DHT22;516;51.482;7.120;2022-09-09T21:43:51;16.00;99.90
1055;DHT22;516;51.482;7.120;2022-09-09T21:49:39;16.10;99.90
1055;DHT22;516;51.482;7.120;2022-09-09T21:52:42;16.00;99.90
1055;DHT22;516;51.482;7.120;2022-09-09T21:55:08;16.00;99.90
1055;DHT22;516;51.482;7.120;2022-09-09T22:00:56;15.90;99.90
1055;DHT22;516;51.482;7.120;2022-09-09T22:06:44;15.80;99.90
1055;DHT22;516;51.482;7.120;2022-09-09T22:12:32;15.80;99.90
1055;DHT22;516;51.482;7.120;2022-09-09T22:18:20;15.80;99.90
1055;DHT22;516;51.482;7.120;2022-09-09T22:24:08;15.80;99.90
1055;DHT22;516;51.482;7.120;2022-09-09T22:29:56;15.90;99.90
1055;DHT22;516;51.482;7.120;2022-09-09T22:35:43;15.80;99.90
1055;DHT22;516;51.482;7.120;2022-09-09T22:41:31;15.80;99.90
1055;DHT22;516;51.482;7.120;2022-09-09T22:47:18;15.70;99.90
1055;DHT22;516;51.482;7.120;2022-09-09T23:03:03;15.60;99.90
1055;DHT22;516;51.482;7.120;2022-09-09T23:08:52;15.60;99.90
1055;DHT22;516;51.482;7.120;2022-09-09T23:14:41;15.50;99.90
1055;DHT22;516;51.482;7.120;2022-09-09T23:20:29;15.30;99.90
1055;DHT22;516;51.482;7.120;2022-09-09T23:26:18;15.40;99.90
1055;DHT22;516;51.482;7.120;2022-09-09T23:32:07;15.40;99.90
1055;DHT22;516;51.482;7.120;2022-09-09T23:37:55;15.40;99.90
1055;DHT22;516;51.482;7.120;2022-09-09T23:43:42;15.20;99.90
1055;DHT22;516;51.482;7.120;2022-09-09T23:49:31;15.20;99.90
1055;DHT22;516;51.482;7.120;2022-09-09T23:55:10;15.20;99.90
